createdAt,value
2023-09-27T00:00:48.214Z,74.75
2023-09-27T00:03:14.851Z,74.66
2023-09-27T00:05:41.756Z,74.62
2023-09-27T00:08:09.262Z,74.47
2023-09-27T00:10:35.850Z,74.47
2023-09-27T00:13:02.512Z,74.53
2023-09-27T00:15:29.153Z,74.82
2023-09-27T00:17:55.858Z,74.76
2023-09-27T00:20:23.013Z,74.90
2023-09-27T00:22:49.721Z,74.90
2023-09-27T00:25:16.604Z,74.93
2023-09-27T00:27:43.358Z,74.78
2023-09-27T00:30:14.390Z,74.72
2023-09-27T00:32:42.102Z,74.87
2023-09-27T00:35:16.029Z,74.79
2023-09-27T00:37:42.626Z,74.92
2023-09-27T00:40:13.118Z,74.96
2023-09-27T00:42:39.964Z,75.07
2023-09-27T00:45:08.088Z,75.10
2023-09-27T00:47:36.657Z,75.04
2023-09-27T00:50:03.633Z,75.09
2023-09-27T00:54:58.675Z,75.13
2023-09-27T00:57:25.518Z,75.08
2023-09-27T00:59:52.698Z,75.12
2023-09-27T01:02:19.710Z,75.15
2023-09-27T01:04:46.470Z,75.27
2023-09-27T01:07:13.205Z,75.41
2023-09-27T01:09:39.817Z,75.51
2023-09-27T01:12:06.656Z,75.58
2023-09-27T01:14:33.625Z,75.63
2023-09-27T01:17:12.760Z,75.50
2023-09-27T01:19:42.207Z,75.46
2023-09-27T01:22:08.678Z,75.52
2023-09-27T01:24:38.714Z,75.56
2023-09-27T01:27:10.661Z,75.74
2023-09-27T01:29:37.210Z,75.77
2023-09-27T01:32:03.908Z,75.83
2023-09-27T01:34:30.628Z,75.66
2023-09-27T01:36:57.129Z,75.64
2023-09-27T01:39:25.407Z,75.74
2023-09-27T01:41:51.933Z,75.86
2023-09-27T01:44:19.742Z,75.80
2023-09-27T01:46:46.383Z,75.87
2023-09-27T01:49:12.972Z,75.86
2023-09-27T01:51:40.396Z,75.97
2023-09-27T01:54:06.943Z,76.14
2023-09-27T01:56:33.402Z,75.96
2023-09-27T01:58:59.924Z,75.99
2023-09-27T02:01:26.413Z,76.04
2023-09-27T02:03:53.065Z,76.02
2023-09-27T02:06:19.628Z,76.27
2023-09-27T02:08:46.115Z,76.04
2023-09-27T02:11:14.306Z,75.95
2023-09-27T02:13:40.800Z,75.99
2023-09-27T02:16:07.374Z,76.01
2023-09-27T02:18:33.835Z,76.04
2023-09-27T02:21:00.359Z,76.04
2023-09-27T02:23:28.131Z,76.13
2023-09-27T02:25:58.949Z,76.46
2023-09-27T02:28:25.573Z,76.19
2023-09-27T02:30:52.896Z,76.14
2023-09-27T02:33:19.543Z,76.14
2023-09-27T02:35:46.068Z,75.96
2023-09-27T02:38:12.943Z,76.25
2023-09-27T02:40:40.661Z,76.03
2023-09-27T02:43:08.371Z,76.13
2023-09-27T02:45:35.509Z,76.09
2023-09-27T02:48:02.553Z,76.21
2023-09-27T02:50:29.108Z,76.19
2023-09-27T02:52:55.675Z,76.25
2023-09-27T02:55:22.213Z,76.38
2023-09-27T02:57:54.312Z,76.66
2023-09-27T03:00:22.473Z,76.68
2023-09-27T03:02:49.413Z,76.65
2023-09-27T03:05:16.435Z,76.59
2023-09-27T03:07:45.935Z,76.58
2023-09-27T03:10:12.769Z,76.58
2023-09-27T03:12:43.216Z,76.48
2023-09-27T03:15:13.315Z,76.62
2023-09-27T03:17:41.547Z,76.63
2023-09-27T03:20:10.642Z,76.68
2023-09-27T03:22:37.148Z,76.78
2023-09-27T03:25:03.696Z,76.60
2023-09-27T03:27:30.247Z,76.63
2023-09-27T03:29:56.988Z,76.64
2023-09-27T03:32:23.460Z,76.48
2023-09-27T03:34:51.822Z,76.66
2023-09-27T03:37:18.282Z,76.54
2023-09-27T03:39:45.111Z,76.69
2023-09-27T03:42:12.264Z,76.80
2023-09-27T03:44:39.698Z,76.30
2023-09-27T03:47:06.245Z,76.48
2023-09-27T03:49:32.771Z,76.64
2023-09-27T03:51:59.207Z,77.14
2023-09-27T03:54:25.766Z,77.41
2023-09-27T03:56:53.182Z,77.60
2023-09-27T03:59:20.088Z,77.90
2023-09-27T04:01:47.469Z,78.22
2023-09-27T04:04:13.994Z,77.99
2023-09-27T04:06:40.500Z,78.19
2023-09-27T04:09:07.955Z,78.71
2023-09-27T04:11:34.560Z,78.73
2023-09-27T04:14:01.101Z,79.06
2023-09-27T04:16:31.681Z,79.22
2023-09-27T04:18:59.680Z,79.15
2023-09-27T04:21:26.607Z,79.37
2023-09-27T04:23:57.402Z,79.95
2023-09-27T04:26:27.663Z,80.07
2023-09-27T04:28:54.878Z,79.77
2023-09-27T04:31:21.911Z,80.10
2023-09-27T04:33:48.664Z,80.11
2023-09-27T04:36:18.303Z,79.89
2023-09-27T04:38:46.328Z,79.94
2023-09-27T04:41:17.016Z,79.71
2023-09-27T04:43:44.251Z,79.63
2023-09-27T04:46:18.469Z,80.18
2023-09-27T04:48:45.898Z,79.88
2023-09-27T04:51:12.507Z,79.95
2023-09-27T04:53:39.379Z,79.94
2023-09-27T04:56:11.597Z,80.07
2023-09-27T04:58:39.999Z,80.05
2023-09-27T05:01:07.284Z,79.90
2023-09-27T05:03:34.453Z,79.85
2023-09-27T05:06:01.064Z,79.98
2023-09-27T05:08:27.662Z,80.02
2023-09-27T05:10:54.334Z,80.21
2023-09-27T05:13:22.757Z,80.28
2023-09-27T05:15:49.842Z,80.31
2023-09-27T05:18:16.675Z,80.54
2023-09-27T05:20:45.123Z,80.43
2023-09-27T05:23:14.730Z,80.50
2023-09-27T05:25:42.309Z,80.52
2023-09-27T05:28:08.785Z,80.42
2023-09-27T05:30:35.263Z,80.31
2023-09-27T05:33:02.426Z,80.71
2023-09-27T05:35:28.965Z,80.39
2023-09-27T05:37:55.520Z,80.51
2023-09-27T05:40:21.971Z,80.61
2023-09-27T05:42:48.586Z,80.70
2023-09-27T05:45:15.165Z,81.82
2023-09-27T05:47:42.215Z,82.35
2023-09-27T05:50:10.124Z,81.84
2023-09-27T05:52:36.813Z,81.44
2023-09-27T05:55:06.831Z,81.29
2023-09-27T05:57:33.978Z,80.90
2023-09-27T06:00:01.809Z,80.43
2023-09-27T06:02:32.650Z,79.96
2023-09-27T06:05:00.313Z,79.43
2023-09-27T06:07:27.227Z,79.19
2023-09-27T06:09:53.676Z,78.70
2023-09-27T06:12:20.165Z,78.27
2023-09-27T06:14:47.837Z,78.11
2023-09-27T06:17:17.366Z,77.75
2023-09-27T06:19:45.415Z,77.45
2023-09-27T06:22:14.809Z,77.17
2023-09-27T06:24:42.100Z,76.97
2023-09-27T06:27:09.172Z,76.87
2023-09-27T06:29:35.864Z,77.07
2023-09-27T06:32:02.928Z,76.86
2023-09-27T06:34:29.511Z,76.76
2023-09-27T06:36:57.619Z,76.68
2023-09-27T06:39:27.045Z,76.50
2023-09-27T06:41:53.592Z,76.43
2023-09-27T06:44:20.289Z,76.31
2023-09-27T06:46:49.431Z,76.17
2023-09-27T06:49:18.048Z,76.31
2023-09-27T06:51:45.566Z,76.09
2023-09-27T06:54:12.168Z,76.07
2023-09-27T06:56:38.780Z,76.00
2023-09-27T06:59:06.707Z,75.89
2023-09-27T07:01:33.485Z,75.81
2023-09-27T07:04:00.179Z,75.67
2023-09-27T07:06:26.686Z,75.47
2023-09-27T07:08:54.729Z,75.95
2023-09-27T07:11:24.819Z,76.45
2023-09-27T07:13:52.006Z,76.97
2023-09-27T07:16:28.955Z,77.57
2023-09-27T07:18:57.429Z,77.86
2023-09-27T07:21:25.882Z,78.05
2023-09-27T07:23:53.484Z,78.40
2023-09-27T07:26:20.478Z,79.00
2023-09-27T07:28:47.377Z,79.48
2023-09-27T07:31:18.291Z,79.54
2023-09-27T07:33:46.360Z,79.65
2023-09-27T07:36:13.178Z,79.49
2023-09-27T07:38:40.918Z,79.15
2023-09-27T07:41:09.943Z,79.32
2023-09-27T07:43:37.435Z,79.18
2023-09-27T07:46:07.877Z,79.16
2023-09-27T07:48:39.278Z,79.59
2023-09-27T07:51:12.938Z,79.73
2023-09-27T07:53:40.066Z,79.74
2023-09-27T07:56:10.588Z,79.62
2023-09-27T07:58:38.262Z,79.35
2023-09-27T08:01:05.964Z,79.41
2023-09-27T08:03:32.923Z,79.30
2023-09-27T08:05:59.804Z,79.27
2023-09-27T08:08:26.428Z,79.37
2023-09-27T08:10:54.000Z,79.33
2023-09-27T08:13:20.889Z,79.20
2023-09-27T08:15:50.314Z,79.30
2023-09-27T08:18:17.579Z,79.27
2023-09-27T08:20:44.811Z,79.43
2023-09-27T08:23:11.526Z,79.57
2023-09-27T08:25:39.185Z,79.20
2023-09-27T08:28:07.138Z,79.13
2023-09-27T08:30:33.763Z,79.14
2023-09-27T08:33:00.411Z,78.96
2023-09-27T08:35:27.231Z,79.10
2023-09-27T08:37:56.668Z,78.82
2023-09-27T08:40:23.200Z,78.90
2023-09-27T08:42:56.860Z,78.72
2023-09-27T08:45:23.951Z,78.93
2023-09-27T08:47:51.351Z,78.95
2023-09-27T08:50:19.750Z,78.97
2023-09-27T08:52:48.208Z,78.50
2023-09-27T08:55:16.251Z,78.38
2023-09-27T08:57:47.276Z,78.36
2023-09-27T09:00:21.206Z,78.50
2023-09-27T09:02:58.232Z,78.66
2023-09-27T09:05:29.185Z,78.48
2023-09-27T09:07:57.261Z,78.43
2023-09-27T09:10:24.126Z,78.22
2023-09-27T09:12:51.802Z,78.16
2023-09-27T09:15:42.365Z,78.07
2023-09-27T09:18:16.162Z,78.32
2023-09-27T09:20:50.587Z,78.46
2023-09-27T09:23:38.291Z,78.40
2023-09-27T09:26:07.568Z,78.17
2023-09-27T09:28:35.122Z,78.04
2023-09-27T09:31:02.172Z,78.17
2023-09-27T09:33:37.893Z,78.05
2023-09-27T09:36:04.991Z,77.75
2023-09-27T09:38:32.222Z,77.40
2023-09-27T09:41:01.408Z,77.09
2023-09-27T09:43:36.286Z,76.56
2023-09-27T09:46:07.660Z,76.31
2023-09-27T09:48:35.871Z,76.21
2023-09-27T09:51:05.033Z,76.01
2023-09-27T09:53:32.034Z,75.56
2023-09-27T09:56:27.404Z,75.66
2023-09-27T09:59:00.684Z,75.64
2023-09-27T10:01:33.177Z,75.71
2023-09-27T10:04:05.414Z,75.58
2023-09-27T10:06:47.182Z,75.61
2023-09-27T10:09:16.322Z,75.38
2023-09-27T10:11:46.925Z,75.59
2023-09-27T10:14:15.318Z,75.80
2023-09-27T10:16:41.912Z,75.79
2023-09-27T10:19:08.451Z,75.46
2023-09-27T10:21:35.694Z,75.30
2023-09-27T10:24:02.735Z,74.94
2023-09-27T10:26:29.966Z,74.84
2023-09-27T10:29:04.127Z,74.98
2023-09-27T10:31:33.157Z,75.17
2023-09-27T10:34:00.549Z,74.98
2023-09-27T10:36:28.976Z,75.44
2023-09-27T10:38:55.442Z,75.02
2023-09-27T10:41:34.629Z,75.63
2023-09-27T10:44:03.225Z,75.65
2023-09-27T10:46:50.063Z,75.75
2023-09-27T10:49:24.123Z,76.07
2023-09-27T10:51:53.592Z,76.00
2023-09-27T10:54:28.811Z,76.12
2023-09-27T10:56:57.457Z,76.17
2023-09-27T10:59:28.037Z,75.99
2023-09-27T11:01:56.060Z,75.92
2023-09-27T11:04:26.883Z,75.86
2023-09-27T11:06:54.654Z,75.88
2023-09-27T11:09:21.164Z,76.08
2023-09-27T11:11:48.931Z,75.68
2023-09-27T11:14:33.169Z,75.89
2023-09-27T11:17:26.746Z,75.80
2023-09-27T11:19:54.100Z,75.46
2023-09-27T11:22:30.382Z,75.21
2023-09-27T11:24:57.189Z,75.27
2023-09-27T11:27:23.745Z,74.98
2023-09-27T11:29:54.393Z,74.70
2023-09-27T11:32:21.673Z,74.13
2023-09-27T11:34:58.469Z,74.27
2023-09-27T11:37:26.104Z,74.21
2023-09-27T11:39:55.744Z,73.71
2023-09-27T11:42:26.854Z,72.94
2023-09-27T11:45:09.153Z,72.41
2023-09-27T11:47:53.755Z,72.81
2023-09-27T11:50:22.299Z,71.76
2023-09-27T11:52:49.192Z,70.11
2023-09-27T11:55:16.364Z,68.93
2023-09-27T11:57:43.342Z,68.09
2023-09-27T12:00:14.559Z,67.49
2023-09-27T12:02:56.387Z,65.63
2023-09-27T12:05:24.281Z,65.29
2023-09-27T12:07:51.550Z,65.05
2023-09-27T12:10:18.309Z,64.95
2023-09-27T12:12:44.752Z,64.79
2023-09-27T12:15:11.664Z,64.16
2023-09-27T12:17:39.008Z,64.21
2023-09-27T12:20:09.189Z,63.78
2023-09-27T12:22:40.294Z,62.80
2023-09-27T12:25:07.846Z,62.51
2023-09-27T12:27:35.031Z,62.23
2023-09-27T12:30:01.899Z,61.84
2023-09-27T12:32:28.438Z,62.17
2023-09-27T12:34:55.025Z,61.26
2023-09-27T12:37:23.021Z,61.32
2023-09-27T12:39:49.688Z,61.26
2023-09-27T12:42:16.169Z,60.28
2023-09-27T12:44:42.708Z,60.00
2023-09-27T12:47:09.200Z,59.99
2023-09-27T12:49:36.783Z,59.95
2023-09-27T12:52:03.455Z,59.72
2023-09-27T12:54:29.917Z,59.51
2023-09-27T12:56:58.970Z,59.35
2023-09-27T12:59:27.757Z,58.62
2023-09-27T13:01:55.079Z,58.69
2023-09-27T13:04:22.827Z,58.78
2023-09-27T13:06:49.636Z,58.43
2023-09-27T13:09:18.452Z,58.37
2023-09-27T13:11:45.256Z,58.12
2023-09-27T13:14:11.938Z,57.93
2023-09-27T13:16:38.423Z,58.49
2023-09-27T13:19:04.992Z,58.72
2023-09-27T13:21:31.433Z,58.96
2023-09-27T13:23:57.886Z,58.30
2023-09-27T13:26:24.931Z,57.99
2023-09-27T13:28:52.237Z,58.27
2023-09-27T13:31:18.899Z,57.67
2023-09-27T13:33:49.093Z,57.25
2023-09-27T13:36:25.882Z,57.71
2023-09-27T13:38:53.597Z,58.07
2023-09-27T13:41:21.000Z,58.18
2023-09-27T13:43:48.706Z,58.38
2023-09-27T13:46:15.335Z,58.76
2023-09-27T13:48:41.820Z,58.50
2023-09-27T13:51:08.323Z,58.13
2023-09-27T13:53:34.817Z,57.46
2023-09-27T13:56:03.173Z,57.63
2023-09-27T13:58:29.656Z,57.55
2023-09-27T14:00:56.140Z,57.46
2023-09-27T14:03:22.708Z,57.21
2023-09-27T14:05:49.414Z,56.93
2023-09-27T14:08:15.961Z,56.88
2023-09-27T14:10:42.399Z,56.91
2023-09-27T14:13:09.011Z,57.17
2023-09-27T14:15:35.802Z,57.12
2023-09-27T14:18:02.485Z,57.27
2023-09-27T14:20:29.034Z,57.57
2023-09-27T14:22:57.259Z,57.49
2023-09-27T14:25:24.148Z,57.10
2023-09-27T14:27:51.498Z,57.53
2023-09-27T14:30:18.088Z,57.24
2023-09-27T14:32:45.034Z,57.09
2023-09-27T14:35:13.701Z,56.47
2023-09-27T14:37:40.977Z,56.31
2023-09-27T14:40:10.846Z,56.56
2023-09-27T14:42:38.910Z,57.20
2023-09-27T14:45:13.497Z,57.57
2023-09-27T14:47:43.637Z,57.96
2023-09-27T14:50:10.831Z,57.59
2023-09-27T14:52:37.365Z,58.00
2023-09-27T14:55:04.309Z,57.89
2023-09-27T14:57:30.867Z,58.17
2023-09-27T14:59:57.369Z,58.39
2023-09-27T15:02:23.905Z,58.00
2023-09-27T15:04:50.446Z,58.89
2023-09-27T15:07:18.082Z,59.46
2023-09-27T15:09:44.816Z,59.47
2023-09-27T15:12:11.285Z,59.87
2023-09-27T15:14:37.884Z,59.99
2023-09-27T15:17:04.412Z,60.48
2023-09-27T15:19:30.940Z,61.16
2023-09-27T15:21:57.510Z,61.12
2023-09-27T15:24:24.084Z,61.48
2023-09-27T15:26:50.538Z,61.60
2023-09-27T15:29:17.010Z,61.99
2023-09-27T15:31:44.605Z,62.04
2023-09-27T15:34:11.151Z,62.11
2023-09-27T15:36:38.120Z,62.24
2023-09-27T15:39:04.578Z,62.27
2023-09-27T15:41:31.127Z,62.47
2023-09-27T15:43:57.624Z,62.55
2023-09-27T15:46:24.732Z,62.80
2023-09-27T15:48:51.310Z,62.95
2023-09-27T15:51:17.790Z,63.10
2023-09-27T15:53:44.270Z,63.26
2023-09-27T15:56:11.815Z,63.10
2023-09-27T15:58:39.183Z,63.23
2023-09-27T16:01:07.580Z,63.48
2023-09-27T16:03:34.117Z,63.31
2023-09-27T16:06:01.951Z,63.39
2023-09-27T16:08:28.659Z,63.52
2023-09-27T16:10:55.951Z,64.00
2023-09-27T16:13:23.643Z,64.08
2023-09-27T16:15:52.529Z,64.37
2023-09-27T16:18:20.722Z,64.32
2023-09-27T16:20:48.101Z,64.14
2023-09-27T16:23:15.509Z,64.32
2023-09-27T16:25:43.597Z,64.29
2023-09-27T16:28:10.781Z,64.73
2023-09-27T16:30:40.200Z,64.67
2023-09-27T16:33:06.860Z,64.59
2023-09-27T16:35:36.946Z,64.72
2023-09-27T16:38:04.070Z,65.06
2023-09-27T16:40:30.705Z,64.90
2023-09-27T16:42:58.964Z,65.07
2023-09-27T16:45:25.493Z,65.13
2023-09-27T16:47:52.173Z,65.37
2023-09-27T16:50:18.682Z,65.20
2023-09-27T16:52:45.302Z,65.65
2023-09-27T16:55:12.257Z,65.80
2023-09-27T16:57:39.799Z,65.93
2023-09-27T17:00:11.424Z,66.18
2023-09-27T17:02:45.843Z,66.68
2023-09-27T17:05:12.367Z,66.67
2023-09-27T17:07:38.964Z,67.02
2023-09-27T17:10:08.930Z,67.09
2023-09-27T17:12:36.966Z,67.15
2023-09-27T17:15:05.219Z,66.81
2023-09-27T17:17:32.849Z,67.16
2023-09-27T17:19:59.376Z,67.48
2023-09-27T17:22:27.631Z,67.51
2023-09-27T17:24:54.141Z,67.58
2023-09-27T17:27:22.442Z,67.35
2023-09-27T17:29:48.908Z,67.67
2023-09-27T17:32:15.385Z,67.62
2023-09-27T17:34:41.976Z,67.77
2023-09-27T17:37:08.811Z,67.71
2023-09-27T17:39:36.375Z,67.72
2023-09-27T17:42:03.057Z,67.69
2023-09-27T17:44:31.664Z,67.70
2023-09-27T17:46:58.912Z,67.68
2023-09-27T17:49:29.387Z,68.31
2023-09-27T17:51:55.935Z,68.01
2023-09-27T17:54:23.259Z,68.11
2023-09-27T17:56:51.590Z,68.03
2023-09-27T17:59:19.845Z,67.95
2023-09-27T18:01:47.723Z,67.86
2023-09-27T18:04:14.429Z,67.94
2023-09-27T18:06:40.966Z,68.24
2023-09-27T18:09:07.420Z,68.03
2023-09-27T18:11:33.923Z,68.41
2023-09-27T18:14:00.437Z,68.54
2023-09-27T18:16:27.371Z,68.70
2023-09-27T18:18:55.371Z,68.50
2023-09-27T18:21:22.109Z,68.75
2023-09-27T18:23:51.872Z,68.74
2023-09-27T18:26:18.779Z,68.39
2023-09-27T18:28:45.389Z,68.55
2023-09-27T18:31:12.433Z,68.82
2023-09-27T18:33:39.203Z,68.43
2023-09-27T18:36:05.840Z,68.72
2023-09-27T18:38:33.176Z,68.50
2023-09-27T18:40:59.737Z,68.88
2023-09-27T18:43:26.425Z,69.32
2023-09-27T18:45:53.093Z,68.62
2023-09-27T18:48:20.081Z,68.95
2023-09-27T18:50:48.709Z,68.96
2023-09-27T18:53:15.253Z,68.98
2023-09-27T18:55:42.028Z,69.19
2023-09-27T18:58:11.478Z,68.71
2023-09-27T19:00:37.999Z,68.28
2023-09-27T19:03:05.237Z,67.91
2023-09-27T19:05:31.795Z,68.44
2023-09-27T19:07:58.599Z,68.66
2023-09-27T19:10:25.651Z,68.59
2023-09-27T19:12:52.274Z,68.78
2023-09-27T19:15:18.746Z,68.82
2023-09-27T19:17:45.391Z,68.42
2023-09-27T19:20:13.653Z,68.47
2023-09-27T19:22:40.143Z,68.68
2023-09-27T19:25:07.100Z,68.48
2023-09-27T19:27:34.379Z,68.95
2023-09-27T19:30:00.846Z,68.27
2023-09-27T19:32:27.651Z,68.46
2023-09-27T19:34:54.199Z,68.60
2023-09-27T19:37:21.985Z,68.09
2023-09-27T19:39:50.940Z,68.49
2023-09-27T19:42:18.616Z,68.31
2023-09-27T19:44:45.053Z,68.17
2023-09-27T19:47:11.545Z,68.65
2023-09-27T19:49:38.836Z,68.01
2023-09-27T19:52:05.460Z,68.07
2023-09-27T19:54:31.955Z,67.74
2023-09-27T19:56:58.376Z,67.56
2023-09-27T19:59:26.644Z,67.69
2023-09-27T20:01:54.681Z,66.88
2023-09-27T20:04:21.441Z,67.24
2023-09-27T20:06:47.997Z,66.96
2023-09-27T20:09:14.438Z,67.17
2023-09-27T20:11:40.948Z,67.04
2023-09-27T20:14:07.485Z,67.39
2023-09-27T20:16:34.234Z,67.07
2023-09-27T20:19:01.255Z,66.73
2023-09-27T20:21:27.776Z,66.41
2023-09-27T20:23:54.425Z,66.75
2023-09-27T20:26:21.068Z,67.05
2023-09-27T20:28:48.266Z,66.30
2023-09-27T20:31:16.034Z,66.78
2023-09-27T20:33:42.630Z,66.83
2023-09-27T20:36:13.454Z,66.56
2023-09-27T20:38:40.850Z,66.20
2023-09-27T20:41:09.674Z,66.24
2023-09-27T20:43:36.305Z,65.72
2023-09-27T20:46:02.877Z,65.77
2023-09-27T20:48:29.471Z,65.95
2023-09-27T20:50:58.395Z,65.72
2023-09-27T20:53:25.591Z,65.86
2023-09-27T20:55:54.024Z,65.60
2023-09-27T20:58:20.814Z,65.99
2023-09-27T21:00:47.298Z,66.34
2023-09-27T21:03:13.901Z,66.44
2023-09-27T21:05:40.927Z,66.20
2023-09-27T21:08:07.396Z,66.54
2023-09-27T21:10:34.265Z,66.19
2023-09-27T21:13:00.901Z,66.36
2023-09-27T21:15:27.399Z,65.90
2023-09-27T21:17:54.120Z,65.74
2023-09-27T21:20:20.782Z,65.70
2023-09-27T21:22:49.239Z,65.98
2023-09-27T21:25:17.313Z,65.26
2023-09-27T21:27:43.884Z,65.35
2023-09-27T21:30:10.593Z,65.44
2023-09-27T21:32:37.247Z,65.48
2023-09-27T21:35:04.469Z,65.67
2023-09-27T21:37:31.100Z,65.60
2023-09-27T21:39:57.616Z,65.18
2023-09-27T21:42:24.148Z,65.44
2023-09-27T21:44:50.574Z,65.77
2023-09-27T21:47:17.105Z,65.36
2023-09-27T21:49:43.595Z,65.31
2023-09-27T21:52:10.069Z,65.61
2023-09-27T21:54:36.509Z,65.65
2023-09-27T21:57:03.079Z,65.63
2023-09-27T21:59:29.546Z,65.78
2023-09-27T22:01:56.271Z,65.84
2023-09-27T22:04:22.723Z,65.96
2023-09-27T22:06:49.204Z,66.15
2023-09-27T22:09:15.669Z,66.07
2023-09-27T22:11:42.230Z,66.25
2023-09-27T22:14:08.864Z,66.41
2023-09-27T22:16:35.517Z,66.42
2023-09-27T22:19:02.331Z,66.61
2023-09-27T22:21:30.755Z,66.59
2023-09-27T22:23:59.623Z,66.72
2023-09-27T22:26:26.475Z,67.18
2023-09-27T22:28:56.878Z,66.92
2023-09-27T22:31:32.458Z,67.22
2023-09-27T22:34:11.528Z,67.34
2023-09-27T22:36:48.434Z,67.49
2023-09-27T22:39:17.819Z,67.57
2023-09-27T22:41:46.701Z,67.86
2023-09-27T22:44:23.586Z,67.60
2023-09-27T22:46:52.638Z,67.86
2023-09-27T22:49:21.707Z,67.88
2023-09-27T22:51:48.616Z,67.85
2023-09-27T22:54:16.083Z,67.84
2023-09-27T22:56:46.794Z,68.02
2023-09-27T22:59:13.978Z,67.85
2023-09-27T23:01:43.808Z,67.86
2023-09-27T23:04:16.008Z,68.08
2023-09-27T23:07:01.294Z,68.17
2023-09-27T23:09:34.841Z,68.24
2023-09-27T23:12:22.104Z,68.34
2023-09-27T23:15:07.258Z,68.41
2023-09-27T23:17:56.389Z,68.59
2023-09-27T23:20:30.815Z,68.64
2023-09-27T23:22:59.127Z,68.45
2023-09-27T23:25:44.075Z,68.87
2023-09-27T23:28:17.453Z,68.81
2023-09-27T23:30:51.433Z,68.85
2023-09-27T23:33:18.335Z,68.98
2023-09-27T23:35:45.105Z,69.09
2023-09-27T23:38:31.731Z,69.04
2023-09-27T23:41:02.098Z,69.19
2023-09-27T23:43:41.148Z,69.41
2023-09-27T23:46:15.044Z,69.30
2023-09-27T23:48:42.930Z,69.63
2023-09-27T23:51:09.545Z,69.53
2023-09-27T23:53:37.171Z,69.70
2023-09-27T23:56:07.871Z,69.81
2023-09-27T23:58:35.453Z,69.92
